sensor_id;sensor_type;location;lat;lon;timestamp;temperature;humidity
18624;DHT22;9441;51.420;7.036;2022-07-29T00:00:08;19.60;1.00
18624;DHT22;9441;51.420;7.036;2022-07-29T00:01:14;19.60;1.00
18624;DHT22;9441;51.420;7.036;2022-07-29T00:02:17;19.50;1.00
18624;DHT22;9441;51.420;7.036;2022-07-29T00:03:19;19.50;1.00
18624;DHT22;9441;51.420;7.036;2022-07-29T00:04:21;19.50;1.00
18624;DHT22;9441;51.420;7.036;2022-07-29T00:05:22;19.50;1.00
18624;DHT22;9441;51.420;7.036;2022-07-29T00:06:24;19.40;1.00
18624;DHT22;9441;51.420;7.036;2022-07-29T00:07:25;19.30;1.00
18624;DHT22;9441;51.420;7.036;2022-07-29T00:08:27;19.40;1.00
18624;DHT22;9441;51.420;7.036;2022-07-29T00:09:28;19.30;1.00
18624;DHT22;9441;51.420;7.036;2022-07-29T00:10:31;19.30;1.00
18624;DHT22;9441;51.420;7.036;2022-07-29T00:11:32;19.30;1.00
18624;DHT22;9441;51.420;7.036;2022-07-29T00:12:34;19.40;1.00
18624;DHT22;9441;51.420;7.036;2022-07-29T00:13:35;19.30;1.00
18624;DHT22;9441;51.420;7.036;2022-07-29T00:14:37;19.30;1.00
18624;DHT22;9441;51.420;7.036;2022-07-29T00:15:38;19.20;1.00
18624;DHT22;9441;51.420;7.036;2022-07-29T00:16:40;19.20;1.00
18624;DHT22;9441;51.420;7.036;2022-07-29T00:17:41;19.20;1.00
18624;DHT22;9441;51.420;7.036;2022-07-29T00:18:45;19.10;1.00
18624;DHT22;9441;51.420;7.036;2022-07-29T00:19:46;19.30;1.00
18624;DHT22;9441;51.420;7.036;2022-07-29T00:20:48;19.30;1.00
18624;DHT22;9441;51.420;7.036;2022-07-29T00:21:49;19.30;1.00
18624;DHT22;9441;51.420;7.036;2022-07-29T00:22:51;19.20;1.00
18624;DHT22;9441;51.420;7.036;2022-07-29T00:23:52;19.20;1.00
18624;DHT22;9441;51.420;7.036;2022-07-29T00:24:54;19.20;1.00
18624;DHT22;9441;51.420;7.036;2022-07-29T00:25:55;19.30;1.00
18624;DHT22;9441;51.420;7.036;2022-07-29T00:26:57;19.20;1.00
18624;DHT22;9441;51.420;7.036;2022-07-29T00:27:58;19.20;1.00
18624;DHT22;9441;51.420;7.036;2022-07-29T00:29:02;19.10;1.00
18624;DHT22;9441;51.420;7.036;2022-07-29T00:30:05;19.20;1.00
18624;DHT22;9441;51.420;7.036;2022-07-29T00:31:07;19.10;1.00
18624;DHT22;9441;51.420;7.036;2022-07-29T00:32:08;19.00;1.00
18624;DHT22;9441;51.420;7.036;2022-07-29T00:33:10;19.10;1.00
18624;DHT22;9441;51.420;7.036;2022-07-29T00:34:13;19.00;1.00
18624;DHT22;9441;51.420;7.036;2022-07-29T00:35:29;19.00;1.00
18624;DHT22;9441;51.420;7.036;2022-07-29T00:36:46;19.00;1.00
18624;DHT22;9441;51.420;7.036;2022-07-29T00:37:47;18.90;1.00
18624;DHT22;9441;51.420;7.036;2022-07-29T00:38:49;18.90;1.00
18624;DHT22;9441;51.420;7.036;2022-07-29T00:39:51;18.80;1.00
18624;DHT22;9441;51.420;7.036;2022-07-29T00:40:52;18.80;1.00
18624;DHT22;9441;51.420;7.036;2022-07-29T00:41:54;18.90;1.00
18624;DHT22;9441;51.420;7.036;2022-07-29T00:42:55;18.80;1.00
18624;DHT22;9441;51.420;7.036;2022-07-29T00:43:57;18.80;1.00
18624;DHT22;9441;51.420;7.036;2022-07-29T00:44:58;18.80;1.00
18624;DHT22;9441;51.420;7.036;2022-07-29T00:46:01;18.80;1.00
18624;DHT22;9441;51.420;7.036;2022-07-29T00:47:02;18.80;1.00
18624;DHT22;9441;51.420;7.036;2022-07-29T00:48:05;18.60;1.00
18624;DHT22;9441;51.420;7.036;2022-07-29T00:49:07;18.60;1.00
18624;DHT22;9441;51.420;7.036;2022-07-29T00:50:11;18.80;1.00
18624;DHT22;9441;51.420;7.036;2022-07-29T00:51:14;18.90;1.00
18624;DHT22;9441;51.420;7.036;2022-07-29T00:52:15;18.90;1.00
18624;DHT22;9441;51.420;7.036;2022-07-29T00:53:19;18.90;1.00
18624;DHT22;9441;51.420;7.036;2022-07-29T00:54:20;18.80;1.00
18624;DHT22;9441;51.420;7.036;2022-07-29T00:55:22;18.70;1.00
18624;DHT22;9441;51.420;7.036;2022-07-29T00:56:24;18.70;1.00
18624;DHT22;9441;51.420;7.036;2022-07-29T00:57:26;18.70;1.00
18624;DHT22;9441;51.420;7.036;2022-07-29T00:58:27;18.80;1.00
18624;DHT22;9441;51.420;7.036;2022-07-29T00:59:29;18.80;1.00
18624;DHT22;9441;51.420;7.036;2022-07-29T01:00:30;18.90;1.00
18624;DHT22;9441;51.420;7.036;2022-07-29T01:01:33;18.70;1.00
18624;DHT22;9441;51.420;7.036;2022-07-29T01:02:34;18.90;1.00
18624;DHT22;9441;51.420;7.036;2022-07-29T01:03:36;18.70;1.00
18624;DHT22;9441;51.420;7.036;2022-07-29T01:04:37;18.70;1.00
18624;DHT22;9441;51.420;7.036;2022-07-29T01:05:41;18.70;1.00
18624;DHT22;9441;51.420;7.036;2022-07-29T01:06:44;18.50;1.00
18624;DHT22;9441;51.420;7.036;2022-07-29T01:07:46;18.60;1.00
18624;DHT22;9441;51.420;7.036;2022-07-29T01:08:48;18.70;1.00
18624;DHT22;9441;51.420;7.036;2022-07-29T01:09:50;18.70;1.00
18624;DHT22;9441;51.420;7.036;2022-07-29T01:10:53;18.80;1.00
18624;DHT22;9441;51.420;7.036;2022-07-29T01:11:55;18.90;1.00
18624;DHT22;9441;51.420;7.036;2022-07-29T01:12:58;18.90;1.00
18624;DHT22;9441;51.420;7.036;2022-07-29T01:14:01;18.80;1.00
18624;DHT22;9441;51.420;7.036;2022-07-29T01:15:04;18.80;1.00
18624;DHT22;9441;51.420;7.036;2022-07-29T01:16:10;18.90;1.00
18624;DHT22;9441;51.420;7.036;2022-07-29T01:17:18;18.90;1.00
18624;DHT22;9441;51.420;7.036;2022-07-29T01:18:26;18.90;1.00
18624;DHT22;9441;51.420;7.036;2022-07-29T01:19:45;18.90;1.00
18624;DHT22;9441;51.420;7.036;2022-07-29T01:22:35;18.70;1.00
18624;DHT22;9441;51.420;7.036;2022-07-29T01:23:52;18.80;1.00
18624;DHT22;9441;51.420;7.036;2022-07-29T01:25:19;19.00;1.00
18624;DHT22;9441;51.420;7.036;2022-07-29T01:26:41;18.90;1.00
18624;DHT22;9441;51.420;7.036;2022-07-29T01:27:51;18.90;1.00
18624;DHT22;9441;51.420;7.036;2022-07-29T01:29:06;18.80;1.00
18624;DHT22;9441;51.420;7.036;2022-07-29T01:30:09;18.70;1.00
18624;DHT22;9441;51.420;7.036;2022-07-29T01:31:11;18.80;1.00
18624;DHT22;9441;51.420;7.036;2022-07-29T01:32:23;18.80;1.00
18624;DHT22;9441;51.420;7.036;2022-07-29T01:33:28;18.70;1.00
18624;DHT22;9441;51.420;7.036;2022-07-29T01:34:53;18.70;1.00
18624;DHT22;9441;51.420;7.036;2022-07-29T01:35:56;18.70;1.00
18624;DHT22;9441;51.420;7.036;2022-07-29T01:37:04;18.70;1.00
18624;DHT22;9441;51.420;7.036;2022-07-29T01:38:12;18.70;1.00
18624;DHT22;9441;51.420;7.036;2022-07-29T01:39:18;18.80;1.00
18624;DHT22;9441;51.420;7.036;2022-07-29T01:40:23;18.80;1.00
18624;DHT22;9441;51.420;7.036;2022-07-29T01:41:29;18.70;1.00
18624;DHT22;9441;51.420;7.036;2022-07-29T01:42:36;18.60;1.00
18624;DHT22;9441;51.420;7.036;2022-07-29T01:43:44;18.70;1.00
18624;DHT22;9441;51.420;7.036;2022-07-29T01:44:53;18.70;1.00
18624;DHT22;9441;51.420;7.036;2022-07-29T01:46:00;18.70;1.00
18624;DHT22;9441;51.420;7.036;2022-07-29T01:47:05;18.50;1.00
18624;DHT22;9441;51.420;7.036;2022-07-29T01:48:13;18.50;1.00
18624;DHT22;9441;51.420;7.036;2022-07-29T01:49:21;18.60;1.00
18624;DHT22;9441;51.420;7.036;2022-07-29T01:50:28;18.60;1.00
18624;DHT22;9441;51.420;7.036;2022-07-29T01:51:35;18.70;1.00
18624;DHT22;9441;51.420;7.036;2022-07-29T01:52:46;18.60;1.00
18624;DHT22;9441;51.420;7.036;2022-07-29T01:53:52;18.70;1.00
18624;DHT22;9441;51.420;7.036;2022-07-29T01:54:57;18.70;1.00
18624;DHT22;9441;51.420;7.036;2022-07-29T01:56:01;18.60;1.00
18624;DHT22;9441;51.420;7.036;2022-07-29T01:57:04;18.50;1.00
18624;DHT22;9441;51.420;7.036;2022-07-29T01:58:08;18.50;1.00
18624;DHT22;9441;51.420;7.036;2022-07-29T01:59:10;18.30;1.00
18624;DHT22;9441;51.420;7.036;2022-07-29T02:00:15;18.40;1.00
18624;DHT22;9441;51.420;7.036;2022-07-29T02:01:23;18.40;2.20
18624;DHT22;9441;51.420;7.036;2022-07-29T02:02:26;18.50;1.00
18624;DHT22;9441;51.420;7.036;2022-07-29T02:03:30;18.50;1.00
18624;DHT22;9441;51.420;7.036;2022-07-29T02:04:33;18.60;1.00
18624;DHT22;9441;51.420;7.036;2022-07-29T02:05:39;18.50;1.00
18624;DHT22;9441;51.420;7.036;2022-07-29T02:06:42;18.40;1.00
18624;DHT22;9441;51.420;7.036;2022-07-29T02:07:47;18.50;1.00
18624;DHT22;9441;51.420;7.036;2022-07-29T02:08:49;18.50;1.00
18624;DHT22;9441;51.420;7.036;2022-07-29T02:09:53;18.40;1.00
18624;DHT22;9441;51.420;7.036;2022-07-29T02:10:55;18.50;1.00
18624;DHT22;9441;51.420;7.036;2022-07-29T02:12:00;18.50;1.00
18624;DHT22;9441;51.420;7.036;2022-07-29T02:13:02;18.50;1.00
18624;DHT22;9441;51.420;7.036;2022-07-29T02:14:07;18.50;1.00
18624;DHT22;9441;51.420;7.036;2022-07-29T02:15:09;18.50;1.00
18624;DHT22;9441;51.420;7.036;2022-07-29T02:16:15;18.60;1.00
18624;DHT22;9441;51.420;7.036;2022-07-29T02:17:21;18.60;1.00
18624;DHT22;9441;51.420;7.036;2022-07-29T02:18:27;18.70;1.00
18624;DHT22;9441;51.420;7.036;2022-07-29T02:19:32;18.70;1.00
18624;DHT22;9441;51.420;7.036;2022-07-29T02:20:34;18.70;1.00
18624;DHT22;9441;51.420;7.036;2022-07-29T02:21:37;18.80;1.00
18624;DHT22;9441;51.420;7.036;2022-07-29T02:22:41;18.80;1.00
18624;DHT22;9441;51.420;7.036;2022-07-29T02:23:44;18.80;1.00
18624;DHT22;9441;51.420;7.036;2022-07-29T02:24:47;18.80;1.00
18624;DHT22;9441;51.420;7.036;2022-07-29T02:25:52;18.70;1.00
18624;DHT22;9441;51.420;7.036;2022-07-29T02:26:56;18.70;1.00
18624;DHT22;9441;51.420;7.036;2022-07-29T02:27:59;18.60;1.00
18624;DHT22;9441;51.420;7.036;2022-07-29T02:29:02;18.50;1.00
18624;DHT22;9441;51.420;7.036;2022-07-29T02:30:04;18.60;1.00
18624;DHT22;9441;51.420;7.036;2022-07-29T02:31:08;18.50;1.00
18624;DHT22;9441;51.420;7.036;2022-07-29T02:32:11;18.50;1.00
18624;DHT22;9441;51.420;7.036;2022-07-29T02:33:16;18.50;1.00
18624;DHT22;9441;51.420;7.036;2022-07-29T02:34:19;18.50;1.00
18624;DHT22;9441;51.420;7.036;2022-07-29T02:35:22;18.50;1.00
18624;DHT22;9441;51.420;7.036;2022-07-29T02:36:24;18.50;1.00
18624;DHT22;9441;51.420;7.036;2022-07-29T02:37:27;18.50;1.00
18624;DHT22;9441;51.420;7.036;2022-07-29T02:38:30;18.50;1.00
18624;DHT22;9441;51.420;7.036;2022-07-29T02:39:53;18.40;22.20
18624;DHT22;9441;51.420;7.036;2022-07-29T02:40:56;18.40;64.10
18624;DHT22;9441;51.420;7.036;2022-07-29T02:42:02;18.40;99.20
18624;DHT22;9441;51.420;7.036;2022-07-29T02:43:05;18.50;99.90
18624;DHT22;9441;51.420;7.036;2022-07-29T02:44:10;18.50;99.90
18624;DHT22;9441;51.420;7.036;2022-07-29T02:45:12;18.60;99.90
18624;DHT22;9441;51.420;7.036;2022-07-29T02:46:18;18.50;99.90
18624;DHT22;9441;51.420;7.036;2022-07-29T02:47:24;18.50;99.90
18624;DHT22;9441;51.420;7.036;2022-07-29T02:48:34;18.40;99.90
18624;DHT22;9441;51.420;7.036;2022-07-29T02:49:39;18.30;99.90
18624;DHT22;9441;51.420;7.036;2022-07-29T02:50:46;18.40;99.90
18624;DHT22;9441;51.420;7.036;2022-07-29T02:51:54;18.40;99.90
18624;DHT22;9441;51.420;7.036;2022-07-29T02:52:59;18.40;99.90
18624;DHT22;9441;51.420;7.036;2022-07-29T02:54:07;18.40;99.90
18624;DHT22;9441;51.420;7.036;2022-07-29T02:55:15;18.30;99.90
18624;DHT22;9441;51.420;7.036;2022-07-29T02:56:23;18.30;99.90
18624;DHT22;9441;51.420;7.036;2022-07-29T02:57:32;18.40;99.90
18624;DHT22;9441;51.420;7.036;2022-07-29T02:58:40;18.40;99.90
18624;DHT22;9441;51.420;7.036;2022-07-29T02:59:42;18.30;99.90
18624;DHT22;9441;51.420;7.036;2022-07-29T03:00:47;18.30;99.90
18624;DHT22;9441;51.420;7.036;2022-07-29T03:01:49;18.30;99.90
18624;DHT22;9441;51.420;7.036;2022-07-29T03:02:54;18.30;99.90
18624;DHT22;9441;51.420;7.036;2022-07-29T03:04:00;18.30;99.90
18624;DHT22;9441;51.420;7.036;2022-07-29T03:05:03;18.30;99.90
18624;DHT22;9441;51.420;7.036;2022-07-29T03:06:07;18.30;99.90
18624;DHT22;9441;51.420;7.036;2022-07-29T03:07:10;18.30;99.90
18624;DHT22;9441;51.420;7.036;2022-07-29T03:08:14;18.30;99.90
18624;DHT22;9441;51.420;7.036;2022-07-29T03:09:17;18.30;99.90
18624;DHT22;9441;51.420;7.036;2022-07-29T03:10:19;18.30;99.90
18624;DHT22;9441;51.420;7.036;2022-07-29T03:11:21;18.30;99.90
18624;DHT22;9441;51.420;7.036;2022-07-29T03:12:24;18.10;99.90
18624;DHT22;9441;51.420;7.036;2022-07-29T03:13:27;17.90;99.90
18624;DHT22;9441;51.420;7.036;2022-07-29T03:14:30;17.70;99.90
18624;DHT22;9441;51.420;7.036;2022-07-29T03:15:33;17.70;99.90
18624;DHT22;9441;51.420;7.036;2022-07-29T03:16:34;17.70;99.90
18624;DHT22;9441;51.420;7.036;2022-07-29T03:17:37;17.80;99.90
18624;DHT22;9441;51.420;7.036;2022-07-29T03:18:41;17.90;97.30
18624;DHT22;9441;51.420;7.036;2022-07-29T03:19:43;18.00;83.60
18624;DHT22;9441;51.420;7.036;2022-07-29T03:20:45;18.00;41.20
18624;DHT22;9441;51.420;7.036;2022-07-29T03:21:47;18.00;22.40
18624;DHT22;9441;51.420;7.036;2022-07-29T03:22:48;18.10;24.30
18624;DHT22;9441;51.420;7.036;2022-07-29T03:23:50;18.10;7.10
18624;DHT22;9441;51.420;7.036;2022-07-29T03:24:51;18.10;7.30
18624;DHT22;9441;51.420;7.036;2022-07-29T03:25:54;18.20;18.70
18624;DHT22;9441;51.420;7.036;2022-07-29T03:26:56;18.30;27.10
18624;DHT22;9441;51.420;7.036;2022-07-29T03:27:59;18.30;30.60
18624;DHT22;9441;51.420;7.036;2022-07-29T03:29:00;18.30;10.70
18624;DHT22;9441;51.420;7.036;2022-07-29T03:30:02;18.20;1.00
18624;DHT22;9441;51.420;7.036;2022-07-29T03:31:04;18.20;1.00
18624;DHT22;9441;51.420;7.036;2022-07-29T03:32:06;18.10;1.00
18624;DHT22;9441;51.420;7.036;2022-07-29T03:33:07;18.10;1.00
18624;DHT22;9441;51.420;7.036;2022-07-29T03:34:11;18.20;1.00
18624;DHT22;9441;51.420;7.036;2022-07-29T03:35:12;18.30;1.00
18624;DHT22;9441;51.420;7.036;2022-07-29T03:36:14;18.10;1.00
18624;DHT22;9441;51.420;7.036;2022-07-29T03:37:16;18.10;1.00
18624;DHT22;9441;51.420;7.036;2022-07-29T03:38:18;18.20;1.00
18624;DHT22;9441;51.420;7.036;2022-07-29T03:39:24;18.30;1.00
18624;DHT22;9441;51.420;7.036;2022-07-29T03:40:29;18.40;1.00
18624;DHT22;9441;51.420;7.036;2022-07-29T03:41:34;18.30;1.00
18624;DHT22;9441;51.420;7.036;2022-07-29T03:42:39;18.30;1.00
18624;DHT22;9441;51.420;7.036;2022-07-29T03:43:43;18.30;1.00
18624;DHT22;9441;51.420;7.036;2022-07-29T03:44:47;18.30;1.00
18624;DHT22;9441;51.420;7.036;2022-07-29T03:45:53;18.10;1.00
18624;DHT22;9441;51.420;7.036;2022-07-29T03:46:57;18.10;1.00
18624;DHT22;9441;51.420;7.036;2022-07-29T03:48:10;18.10;1.00
18624;DHT22;9441;51.420;7.036;2022-07-29T03:49:14;18.20;1.00
18624;DHT22;9441;51.420;7.036;2022-07-29T03:50:18;18.20;1.00
18624;DHT22;9441;51.420;7.036;2022-07-29T03:51:20;18.30;1.00
18624;DHT22;9441;51.420;7.036;2022-07-29T03:52:23;18.40;1.00
18624;DHT22;9441;51.420;7.036;2022-07-29T03:53:24;18.50;1.00
18624;DHT22;9441;51.420;7.036;2022-07-29T03:54:26;18.30;1.00
18624;DHT22;9441;51.420;7.036;2022-07-29T03:55:29;18.20;1.00
18624;DHT22;9441;51.420;7.036;2022-07-29T03:56:38;18.20;1.00
18624;DHT22;9441;51.420;7.036;2022-07-29T03:57:40;18.10;1.00
18624;DHT22;9441;51.420;7.036;2022-07-29T03:58:43;18.10;1.00
18624;DHT22;9441;51.420;7.036;2022-07-29T03:59:45;18.10;1.00
18624;DHT22;9441;51.420;7.036;2022-07-29T04:00:48;18.00;1.00
18624;DHT22;9441;51.420;7.036;2022-07-29T04:01:50;18.10;1.00
18624;DHT22;9441;51.420;7.036;2022-07-29T04:02:52;18.20;1.00
18624;DHT22;9441;51.420;7.036;2022-07-29T04:03:53;18.20;1.00
18624;DHT22;9441;51.420;7.036;2022-07-29T04:04:57;18.20;1.00
18624;DHT22;9441;51.420;7.036;2022-07-29T04:06:01;18.20;1.00
18624;DHT22;9441;51.420;7.036;2022-07-29T04:07:03;18.00;1.00
18624;DHT22;9441;51.420;7.036;2022-07-29T04:08:06;18.00;1.00
18624;DHT22;9441;51.420;7.036;2022-07-29T04:09:07;18.00;1.00
18624;DHT22;9441;51.420;7.036;2022-07-29T04:10:09;18.00;1.00
18624;DHT22;9441;51.420;7.036;2022-07-29T04:11:10;17.90;1.00
18624;DHT22;9441;51.420;7.036;2022-07-29T04:12:13;17.80;1.00
18624;DHT22;9441;51.420;7.036;2022-07-29T04:13:14;17.90;1.00
18624;DHT22;9441;51.420;7.036;2022-07-29T04:14:16;17.90;1.00
18624;DHT22;9441;51.420;7.036;2022-07-29T04:15:17;17.90;1.00
18624;DHT22;9441;51.420;7.036;2022-07-29T04:16:19;17.80;1.30
18624;DHT22;9441;51.420;7.036;2022-07-29T04:17:20;17.80;7.40
18624;DHT22;9441;51.420;7.036;2022-07-29T04:18:22;17.70;20.50
18624;DHT22;9441;51.420;7.036;2022-07-29T04:19:23;17.80;33.40
18624;DHT22;9441;51.420;7.036;2022-07-29T04:20:27;17.70;19.80
18624;DHT22;9441;51.420;7.036;2022-07-29T04:21:28;17.60;26.50
18624;DHT22;9441;51.420;7.036;2022-07-29T04:22:30;17.60;35.00
18624;DHT22;9441;51.420;7.036;2022-07-29T04:23:31;17.60;47.80
18624;DHT22;9441;51.420;7.036;2022-07-29T04:24:34;17.70;51.30
18624;DHT22;9441;51.420;7.036;2022-07-29T04:25:37;17.70;43.80
18624;DHT22;9441;51.420;7.036;2022-07-29T04:26:40;17.60;46.70
18624;DHT22;9441;51.420;7.036;2022-07-29T04:27:41;17.60;52.20
18624;DHT22;9441;51.420;7.036;2022-07-29T04:28:57;17.60;62.60
18624;DHT22;9441;51.420;7.036;2022-07-29T04:29:59;17.50;48.70
18624;DHT22;9441;51.420;7.036;2022-07-29T04:31:00;17.70;68.80
18624;DHT22;9441;51.420;7.036;2022-07-29T04:32:02;17.70;51.40
18624;DHT22;9441;51.420;7.036;2022-07-29T04:33:05;17.70;40.30
18624;DHT22;9441;51.420;7.036;2022-07-29T04:34:07;17.80;58.90
18624;DHT22;9441;51.420;7.036;2022-07-29T04:35:09;17.60;46.90
18624;DHT22;9441;51.420;7.036;2022-07-29T04:36:13;17.70;52.90
18624;DHT22;9441;51.420;7.036;2022-07-29T04:37:15;17.70;38.40
18624;DHT22;9441;51.420;7.036;2022-07-29T04:38:16;17.80;45.10
18624;DHT22;9441;51.420;7.036;2022-07-29T04:39:18;17.80;44.80
18624;DHT22;9441;51.420;7.036;2022-07-29T04:40:19;17.70;50.20
18624;DHT22;9441;51.420;7.036;2022-07-29T04:41:21;17.70;35.50
18624;DHT22;9441;51.420;7.036;2022-07-29T04:42:23;17.70;57.70
18624;DHT22;9441;51.420;7.036;2022-07-29T04:43:24;17.70;30.00
18624;DHT22;9441;51.420;7.036;2022-07-29T04:44:27;17.60;31.00
18624;DHT22;9441;51.420;7.036;2022-07-29T04:45:29;17.60;30.50
18624;DHT22;9441;51.420;7.036;2022-07-29T04:46:31;17.70;35.20
18624;DHT22;9441;51.420;7.036;2022-07-29T04:47:32;17.60;34.00
18624;DHT22;9441;51.420;7.036;2022-07-29T04:48:34;17.70;44.90
18624;DHT22;9441;51.420;7.036;2022-07-29T04:49:37;17.90;46.30
18624;DHT22;9441;51.420;7.036;2022-07-29T04:50:40;18.00;44.70
18624;DHT22;9441;51.420;7.036;2022-07-29T04:51:42;18.00;26.70
18624;DHT22;9441;51.420;7.036;2022-07-29T04:52:44;18.10;31.70
18624;DHT22;9441;51.420;7.036;2022-07-29T04:53:46;18.00;20.60
18624;DHT22;9441;51.420;7.036;2022-07-29T04:54:48;18.00;45.30
18624;DHT22;9441;51.420;7.036;2022-07-29T04:55:49;18.10;25.50
18624;DHT22;9441;51.420;7.036;2022-07-29T04:56:51;18.00;11.40
18624;DHT22;9441;51.420;7.036;2022-07-29T04:57:52;18.10;13.70
18624;DHT22;9441;51.420;7.036;2022-07-29T04:58:55;18.10;7.40
18624;DHT22;9441;51.420;7.036;2022-07-29T04:59:56;17.90;8.80
18624;DHT22;9441;51.420;7.036;2022-07-29T05:00:58;18.00;26.20
18624;DHT22;9441;51.420;7.036;2022-07-29T05:01:59;18.10;18.20
18624;DHT22;9441;51.420;7.036;2022-07-29T05:03:01;18.10;13.80
18624;DHT22;9441;51.420;7.036;2022-07-29T05:04:02;18.10;3.00
18624;DHT22;9441;51.420;7.036;2022-07-29T05:05:05;18.00;1.00
18624;DHT22;9441;51.420;7.036;2022-07-29T05:06:06;18.00;1.00
18624;DHT22;9441;51.420;7.036;2022-07-29T05:07:09;18.00;2.20
18624;DHT22;9441;51.420;7.036;2022-07-29T05:08:10;17.90;1.00
18624;DHT22;9441;51.420;7.036;2022-07-29T05:09:12;18.00;9.70
18624;DHT22;9441;51.420;7.036;2022-07-29T05:10:13;18.00;1.00
18624;DHT22;9441;51.420;7.036;2022-07-29T05:11:16;18.00;4.50
18624;DHT22;9441;51.420;7.036;2022-07-29T05:12:17;18.10;8.60
18624;DHT22;9441;51.420;7.036;2022-07-29T05:13:19;18.10;9.10
18624;DHT22;9441;51.420;7.036;2022-07-29T05:14:20;18.20;15.20
18624;DHT22;9441;51.420;7.036;2022-07-29T05:15:22;18.10;12.20
18624;DHT22;9441;51.420;7.036;2022-07-29T05:16:23;18.10;14.50
18624;DHT22;9441;51.420;7.036;2022-07-29T05:17:25;18.10;19.80
18624;DHT22;9441;51.420;7.036;2022-07-29T05:18:27;18.00;20.60
18624;DHT22;9441;51.420;7.036;2022-07-29T05:19:29;18.00;35.10
18624;DHT22;9441;51.420;7.036;2022-07-29T05:20:31;18.10;33.10
18624;DHT22;9441;51.420;7.036;2022-07-29T05:21:32;18.10;34.10
18624;DHT22;9441;51.420;7.036;2022-07-29T05:22:36;18.20;31.70
18624;DHT22;9441;51.420;7.036;2022-07-29T05:23:37;18.10;24.60
18624;DHT22;9441;51.420;7.036;2022-07-29T05:24:39;18.00;24.50
18624;DHT22;9441;51.420;7.036;2022-07-29T05:25:41;18.10;47.90
18624;DHT22;9441;51.420;7.036;2022-07-29T05:26:44;18.00;24.80
18624;DHT22;9441;51.420;7.036;2022-07-29T05:27:45;17.90;21.70
18624;DHT22;9441;51.420;7.036;2022-07-29T05:28:47;18.00;49.60
18624;DHT22;9441;51.420;7.036;2022-07-29T05:29:48;18.00;49.80
18624;DHT22;9441;51.420;7.036;2022-07-29T05:30:50;17.90;49.60
18624;DHT22;9441;51.420;7.036;2022-07-29T05:31:52;18.10;67.90
18624;DHT22;9441;51.420;7.036;2022-07-29T05:32:54;18.10;56.80
18624;DHT22;9441;51.420;7.036;2022-07-29T05:33:56;17.90;26.60
18624;DHT22;9441;51.420;7.036;2022-07-29T05:34:57;17.90;17.30
18624;DHT22;9441;51.420;7.036;2022-07-29T05:36:00;17.70;27.00
18624;DHT22;9441;51.420;7.036;2022-07-29T05:37:01;17.60;38.20
18624;DHT22;9441;51.420;7.036;2022-07-29T05:38:04;17.80;64.90
18624;DHT22;9441;51.420;7.036;2022-07-29T05:39:05;17.90;81.50
18624;DHT22;9441;51.420;7.036;2022-07-29T05:40:08;17.90;99.90
18624;DHT22;9441;51.420;7.036;2022-07-29T05:41:10;18.10;99.90
18624;DHT22;9441;51.420;7.036;2022-07-29T05:42:12;18.10;99.90
18624;DHT22;9441;51.420;7.036;2022-07-29T05:43:14;18.20;99.90
18624;DHT22;9441;51.420;7.036;2022-07-29T05:44:17;18.20;99.90
18624;DHT22;9441;51.420;7.036;2022-07-29T05:45:18;18.30;99.90
18624;DHT22;9441;51.420;7.036;2022-07-29T05:46:20;18.30;99.90
18624;DHT22;9441;51.420;7.036;2022-07-29T05:47:21;18.30;99.90
18624;DHT22;9441;51.420;7.036;2022-07-29T05:48:23;18.20;99.90
18624;DHT22;9441;51.420;7.036;2022-07-29T05:49:25;18.20;99.90
18624;DHT22;9441;51.420;7.036;2022-07-29T05:50:27;18.20;99.90
18624;DHT22;9441;51.420;7.036;2022-07-29T05:51:28;18.30;99.90
18624;DHT22;9441;51.420;7.036;2022-07-29T05:52:30;18.20;99.90
18624;DHT22;9441;51.420;7.036;2022-07-29T05:53:34;18.20;99.90
18624;DHT22;9441;51.420;7.036;2022-07-29T05:54:35;18.30;1.00
18624;DHT22;9441;51.420;7.036;2022-07-29T05:55:37;18.30;1.00
18624;DHT22;9441;51.420;7.036;2022-07-29T05:56:38;18.30;1.00
18624;DHT22;9441;51.420;7.036;2022-07-29T05:57:40;18.10;99.90
18624;DHT22;9441;51.420;7.036;2022-07-29T05:58:44;18.10;1.00
18624;DHT22;9441;51.420;7.036;2022-07-29T05:59:45;18.20;1.00
18624;DHT22;9441;51.420;7.036;2022-07-29T06:00:48;18.30;1.00
18624;DHT22;9441;51.420;7.036;2022-07-29T06:01:49;18.30;1.00
18624;DHT22;9441;51.420;7.036;2022-07-29T06:02:51;18.30;1.00
18624;DHT22;9441;51.420;7.036;2022-07-29T06:03:52;18.30;1.00
18624;DHT22;9441;51.420;7.036;2022-07-29T06:04:54;18.20;1.00
18624;DHT22;9441;51.420;7.036;2022-07-29T06:05:56;18.10;1.00
18624;DHT22;9441;51.420;7.036;2022-07-29T06:06:57;18.20;99.90
18624;DHT22;9441;51.420;7.036;2022-07-29T06:07:59;18.20;1.00
18624;DHT22;9441;51.420;7.036;2022-07-29T06:09:02;18.20;1.00
18624;DHT22;9441;51.420;7.036;2022-07-29T06:10:05;18.10;1.00
18624;DHT22;9441;51.420;7.036;2022-07-29T06:11:06;18.20;1.00
18624;DHT22;9441;51.420;7.036;2022-07-29T06:12:09;18.30;1.00
18624;DHT22;9441;51.420;7.036;2022-07-29T06:13:10;18.10;1.00
18624;DHT22;9441;51.420;7.036;2022-07-29T06:14:12;18.10;1.00
18624;DHT22;9441;51.420;7.036;2022-07-29T06:15:13;18.10;1.00
18624;DHT22;9441;51.420;7.036;2022-07-29T06:16:16;18.00;99.90
18624;DHT22;9441;51.420;7.036;2022-07-29T06:17:17;18.10;1.00
18624;DHT22;9441;51.420;7.036;2022-07-29T06:18:19;18.10;99.90
18624;DHT22;9441;51.420;7.036;2022-07-29T06:19:21;18.10;1.00
18624;DHT22;9441;51.420;7.036;2022-07-29T06:20:23;18.20;1.00
18624;DHT22;9441;51.420;7.036;2022-07-29T06:21:24;18.20;1.00
18624;DHT22;9441;51.420;7.036;2022-07-29T06:22:26;18.10;99.90
18624;DHT22;9441;51.420;7.036;2022-07-29T06:23:29;18.10;99.90
18624;DHT22;9441;51.420;7.036;2022-07-29T06:24:31;18.00;99.90
18624;DHT22;9441;51.420;7.036;2022-07-29T06:25:34;18.00;1.00
18624;DHT22;9441;51.420;7.036;2022-07-29T06:26:36;18.10;1.00
18624;DHT22;9441;51.420;7.036;2022-07-29T06:27:38;18.10;1.00
18624;DHT22;9441;51.420;7.036;2022-07-29T06:28:39;18.20;1.00
18624;DHT22;9441;51.420;7.036;2022-07-29T06:29:41;18.20;1.00
18624;DHT22;9441;51.420;7.036;2022-07-29T06:30:43;18.20;1.00
18624;DHT22;9441;51.420;7.036;2022-07-29T06:31:45;18.10;1.00
18624;DHT22;9441;51.420;7.036;2022-07-29T06:32:46;18.10;1.00
18624;DHT22;9441;51.420;7.036;2022-07-29T06:33:48;18.20;1.00
18624;DHT22;9441;51.420;7.036;2022-07-29T06:34:50;18.00;1.00
18624;DHT22;9441;51.420;7.036;2022-07-29T06:35:52;18.10;1.00
18624;DHT22;9441;51.420;7.036;2022-07-29T06:36:53;18.20;1.00
18624;DHT22;9441;51.420;7.036;2022-07-29T06:37:55;18.30;1.00
18624;DHT22;9441;51.420;7.036;2022-07-29T06:38:56;18.30;1.00
18624;DHT22;9441;51.420;7.036;2022-07-29T06:40:00;18.30;1.00
18624;DHT22;9441;51.420;7.036;2022-07-29T06:41:19;18.30;1.00
18624;DHT22;9441;51.420;7.036;2022-07-29T06:42:21;18.30;1.00
18624;DHT22;9441;51.420;7.036;2022-07-29T06:43:22;18.20;1.00
18624;DHT22;9441;51.420;7.036;2022-07-29T06:44:24;18.20;1.00
18624;DHT22;9441;51.420;7.036;2022-07-29T06:45:27;18.20;1.00
18624;DHT22;9441;51.420;7.036;2022-07-29T06:46:28;18.40;1.00
18624;DHT22;9441;51.420;7.036;2022-07-29T06:47:30;18.30;1.00
18624;DHT22;9441;51.420;7.036;2022-07-29T06:48:31;18.30;1.00
18624;DHT22;9441;51.420;7.036;2022-07-29T06:49:34;18.30;1.00
18624;DHT22;9441;51.420;7.036;2022-07-29T06:50:35;18.50;1.00
18624;DHT22;9441;51.420;7.036;2022-07-29T06:51:37;18.60;1.00
18624;DHT22;9441;51.420;7.036;2022-07-29T06:52:39;18.60;99.90